sensor_id;sensor_type;location;lat;lon;timestamp;pressure;altitude;pressure_sealevel;temperature;humidity
30614;BME280;17381;51.690;5.270;2023-05-23T00:01:31;101884.38;;;16.76;68.63
30614;BME280;17381;51.690;5.270;2023-05-23T00:04:35;101881.84;;;16.73;68.56
30614;BME280;17381;51.690;5.270;2023-05-23T00:07:54;101889.50;;;16.82;68.54
30614;BME280;17381;51.690;5.270;2023-05-23T00:10:55;101893.91;;;16.83;68.40
30614;BME280;17381;51.690;5.270;2023-05-23T00:13:23;101884.28;;;16.79;68.46
30614;BME280;17381;51.690;5.270;2023-05-23T00:15:57;101886.09;;;16.78;68.35
30614;BME280;17381;51.690;5.270;2023-05-23T00:18:44;101892.09;;;16.84;68.37
30614;BME280;17381;51.690;5.270;2023-05-23T00:27:30;101884.97;;;16.86;68.11
30614;BME280;17381;51.690;5.270;2023-05-23T00:34:27;101896.88;;;16.72;67.61
30614;BME280;17381;51.690;5.270;2023-05-23T00:37:41;101906.84;;;16.66;67.76
30614;BME280;17381;51.690;5.270;2023-05-23T00:40:37;101912.91;;;16.69;67.54
30614;BME280;17381;51.690;5.270;2023-05-23T00:46:27;101923.75;;;16.63;67.46
30614;BME280;17381;51.690;5.270;2023-05-23T00:49:17;101920.28;;;16.61;67.61
30614;BME280;17381;51.690;5.270;2023-05-23T00:52:26;101921.25;;;16.58;67.62
30614;BME280;17381;51.690;5.270;2023-05-23T00:55:55;101916.91;;;16.56;67.46
30614;BME280;17381;51.690;5.270;2023-05-23T00:58:50;101916.22;;;16.49;67.36
30614;BME280;17381;51.690;5.270;2023-05-23T01:05:08;101936.19;;;16.34;67.54
30614;BME280;17381;51.690;5.270;2023-05-23T01:08:07;101926.59;;;16.30;67.63
30614;BME280;17381;51.690;5.270;2023-05-23T01:10:48;101929.31;;;16.29;67.68
30614;BME280;17381;51.690;5.270;2023-05-23T01:18:01;101929.59;;;16.20;68.08
30614;BME280;17381;51.690;5.270;2023-05-23T01:20:49;101926.22;;;16.14;68.39
30614;BME280;17381;51.690;5.270;2023-05-23T01:28:07;101937.09;;;16.05;68.63
30614;BME280;17381;51.690;5.270;2023-05-23T01:31:05;101932.03;;;15.98;68.93
30614;BME280;17381;51.690;5.270;2023-05-23T01:34:04;101940.72;;;16.03;69.29
30614;BME280;17381;51.690;5.270;2023-05-23T01:37:18;101906.66;;;15.90;69.55
30614;BME280;17381;51.690;5.270;2023-05-23T01:43:13;101905.19;;;15.80;69.47
30614;BME280;17381;51.690;5.270;2023-05-23T01:46:27;101938.03;;;16.04;69.56
30614;BME280;17381;51.690;5.270;2023-05-23T01:49:40;101935.34;;;16.06;69.76
30614;BME280;17381;51.690;5.270;2023-05-23T01:53:05;101937.25;;;16.01;69.62
30614;BME280;17381;51.690;5.270;2023-05-23T01:59:28;101939.75;;;16.05;69.71
30614;BME280;17381;51.690;5.270;2023-05-23T02:02:38;101946.19;;;15.98;69.76
30614;BME280;17381;51.690;5.270;2023-05-23T02:05:46;101958.50;;;15.99;69.61
30614;BME280;17381;51.690;5.270;2023-05-23T02:08:42;101945.00;;;15.79;69.56
30614;BME280;17381;51.690;5.270;2023-05-23T02:11:56;101935.25;;;15.79;69.67
30614;BME280;17381;51.690;5.270;2023-05-23T02:15:30;101973.66;;;15.96;69.82
30614;BME280;17381;51.690;5.270;2023-05-23T02:21:48;101979.09;;;15.91;69.76
30614;BME280;17381;51.690;5.270;2023-05-23T02:24:26;101966.81;;;15.88;69.59
30614;BME280;17381;51.690;5.270;2023-05-23T02:27:39;101971.28;;;15.86;69.76
30614;BME280;17381;51.690;5.270;2023-05-23T02:30:36;101972.22;;;15.84;69.21
30614;BME280;17381;51.690;5.270;2023-05-23T02:33:41;101977.72;;;15.78;68.96
30614;BME280;17381;51.690;5.270;2023-05-23T02:37:15;101977.50;;;15.85;68.98
30614;BME280;17381;51.690;5.270;2023-05-23T02:39:57;101980.94;;;15.87;69.01
30614;BME280;17381;51.690;5.270;2023-05-23T02:43:04;101975.66;;;15.87;68.86
30614;BME280;17381;51.690;5.270;2023-05-23T02:46:14;101968.63;;;15.86;68.94
30614;BME280;17381;51.690;5.270;2023-05-23T02:49:31;101977.50;;;15.85;69.07
30614;BME280;17381;51.690;5.270;2023-05-23T02:52:38;101964.16;;;15.88;68.91
30614;BME280;17381;51.690;5.270;2023-05-23T02:55:25;101961.44;;;15.90;68.94
30614;BME280;17381;51.690;5.270;2023-05-23T02:58:41;101960.47;;;15.92;68.71
30614;BME280;17381;51.690;5.270;2023-05-23T03:05:35;101962.56;;;15.83;68.76
30614;BME280;17381;51.690;5.270;2023-05-23T03:08:36;101965.97;;;15.86;69.17
30614;BME280;17381;51.690;5.270;2023-05-23T03:11:40;101966.56;;;15.96;68.87
30614;BME280;17381;51.690;5.270;2023-05-23T03:14:44;101944.13;;;15.78;68.73
30614;BME280;17381;51.690;5.270;2023-05-23T03:17:23;101974.63;;;15.93;68.96
30614;BME280;17381;51.690;5.270;2023-05-23T03:24:21;101975.72;;;15.86;68.89
30614;BME280;17381;51.690;5.270;2023-05-23T03:27:38;101982.88;;;15.82;68.78
30614;BME280;17381;51.690;5.270;2023-05-23T03:31:00;101983.88;;;15.78;68.81
30614;BME280;17381;51.690;5.270;2023-05-23T03:33:52;101989.22;;;15.77;68.83
30614;BME280;17381;51.690;5.270;2023-05-23T03:37:20;101985.81;;;15.73;69.04
30614;BME280;17381;51.690;5.270;2023-05-23T03:44:00;101992.09;;;15.69;69.11
30614;BME280;17381;51.690;5.270;2023-05-23T03:47:08;101986.66;;;15.74;69.28
30614;BME280;17381;51.690;5.270;2023-05-23T03:50:19;101992.84;;;15.74;69.59
30614;BME280;17381;51.690;5.270;2023-05-23T03:53:17;101999.00;;;15.75;69.50
30614;BME280;17381;51.690;5.270;2023-05-23T03:56:47;101998.28;;;15.68;69.41
30614;BME280;17381;51.690;5.270;2023-05-23T03:59:30;101999.22;;;15.67;69.46
30614;BME280;17381;51.690;5.270;2023-05-23T04:02:41;102000.88;;;15.71;69.57
30614;BME280;17381;51.690;5.270;2023-05-23T04:05:51;102013.28;;;15.70;69.54
30614;BME280;17381;51.690;5.270;2023-05-23T04:08:51;102012.31;;;15.73;69.37
30614;BME280;17381;51.690;5.270;2023-05-23T04:12:06;102014.97;;;15.73;69.59
30614;BME280;17381;51.690;5.270;2023-05-23T04:15:44;102013.25;;;15.72;69.61
30614;BME280;17381;51.690;5.270;2023-05-23T04:18:50;102018.53;;;15.72;69.74
30614;BME280;17381;51.690;5.270;2023-05-23T04:21:55;102016.94;;;15.65;69.75
30614;BME280;17381;51.690;5.270;2023-05-23T04:24:45;102012.59;;;15.62;69.63
30614;BME280;17381;51.690;5.270;2023-05-23T04:27:39;102024.91;;;15.63;69.27
30614;BME280;17381;51.690;5.270;2023-05-23T04:34:11;102025.94;;;15.59;69.42
30614;BME280;17381;51.690;5.270;2023-05-23T04:37:20;102027.00;;;15.52;69.54
30614;BME280;17381;51.690;5.270;2023-05-23T04:40:31;102040.41;;;15.46;69.47
30614;BME280;17381;51.690;5.270;2023-05-23T04:43:43;102052.78;;;15.45;69.59
30614;BME280;17381;51.690;5.270;2023-05-23T04:47:04;102051.16;;;15.41;69.64
30614;BME280;17381;51.690;5.270;2023-05-23T04:50:41;102048.81;;;15.29;69.13
30614;BME280;17381;51.690;5.270;2023-05-23T04:54:05;102052.56;;;15.20;69.38
30614;BME280;17381;51.690;5.270;2023-05-23T04:57:08;102055.28;;;15.17;69.37
30614;BME280;17381;51.690;5.270;2023-05-23T05:00:37;102068.50;;;15.19;69.38
30614;BME280;17381;51.690;5.270;2023-05-23T05:04:01;102065.94;;;15.16;69.85
30614;BME280;17381;51.690;5.270;2023-05-23T05:07:06;102063.31;;;15.14;69.74
30614;BME280;17381;51.690;5.270;2023-05-23T05:10:22;102071.16;;;15.19;69.52
30614;BME280;17381;51.690;5.270;2023-05-23T05:20:25;102077.34;;;15.18;69.48
30614;BME280;17381;51.690;5.270;2023-05-23T05:27:01;102073.41;;;14.98;69.26
30614;BME280;17381;51.690;5.270;2023-05-23T05:30:30;102087.53;;;14.99;69.10
30614;BME280;17381;51.690;5.270;2023-05-23T05:37:55;102093.06;;;14.90;69.08
30614;BME280;17381;51.690;5.270;2023-05-23T05:41:03;102108.13;;;14.86;69.11
30614;BME280;17381;51.690;5.270;2023-05-23T05:44:27;102095.16;;;14.74;69.22
30614;BME280;17381;51.690;5.270;2023-05-23T05:47:35;102121.44;;;14.83;68.73
30614;BME280;17381;51.690;5.270;2023-05-23T05:50:39;102117.88;;;14.84;68.72
30614;BME280;17381;51.690;5.270;2023-05-23T06:01:07;102136.72;;;14.70;67.92
30614;BME280;17381;51.690;5.270;2023-05-23T06:07:29;102128.16;;;14.59;68.15
30614;BME280;17381;51.690;5.270;2023-05-23T06:11:13;102137.06;;;14.55;68.23
30614;BME280;17381;51.690;5.270;2023-05-23T06:14:57;102139.81;;;14.47;68.25
30614;BME280;17381;51.690;5.270;2023-05-23T06:18:04;102142.47;;;14.47;68.25
30614;BME280;17381;51.690;5.270;2023-05-23T06:21:31;102138.03;;;14.49;68.12
30614;BME280;17381;51.690;5.270;2023-05-23T06:29:02;102147.63;;;14.55;68.16
30614;BME280;17381;51.690;5.270;2023-05-23T06:32:28;102152.00;;;14.57;67.17
30614;BME280;17381;51.690;5.270;2023-05-23T06:35:18;102166.09;;;14.58;67.56
30614;BME280;17381;51.690;5.270;2023-05-23T06:38:28;102165.31;;;14.53;66.19
30614;BME280;17381;51.690;5.270;2023-05-23T06:45:23;102166.22;;;14.53;66.63
30614;BME280;17381;51.690;5.270;2023-05-23T06:48:22;102165.22;;;14.57;66.12
30614;BME280;17381;51.690;5.270;2023-05-23T06:51:55;102168.66;;;14.61;64.46
30614;BME280;17381;51.690;5.270;2023-05-23T06:58:05;102174.69;;;14.69;63.68
30614;BME280;17381;51.690;5.270;2023-05-23T07:04:15;102192.13;;;14.78;63.51
30614;BME280;17381;51.690;5.270;2023-05-23T07:07:27;102171.22;;;14.66;63.94
30614;BME280;17381;51.690;5.270;2023-05-23T07:10:44;102198.19;;;14.85;63.22
30614;BME280;17381;51.690;5.270;2023-05-23T07:14:11;102202.63;;;14.82;63.10
30614;BME280;17381;51.690;5.270;2023-05-23T07:17:08;102200.78;;;14.86;63.54
30614;BME280;17381;51.690;5.270;2023-05-23T07:19:51;102208.63;;;14.91;63.62
30614;BME280;17381;51.690;5.270;2023-05-23T07:22:35;102211.34;;;14.88;63.13
30614;BME280;17381;51.690;5.270;2023-05-23T07:25:37;102216.81;;;14.80;62.99
30614;BME280;17381;51.690;5.270;2023-05-23T07:28:30;102212.50;;;14.74;62.75
30614;BME280;17381;51.690;5.270;2023-05-23T07:31:25;102160.91;;;14.53;63.00
30614;BME280;17381;51.690;5.270;2023-05-23T07:34:30;102206.28;;;14.77;63.71
30614;BME280;17381;51.690;5.270;2023-05-23T07:37:29;102216.72;;;14.85;63.93
30614;BME280;17381;51.690;5.270;2023-05-23T07:40:22;102222.66;;;14.94;64.41
30614;BME280;17381;51.690;5.270;2023-05-23T07:43:12;102223.41;;;15.01;63.63
30614;BME280;17381;51.690;5.270;2023-05-23T07:46:40;102225.31;;;14.94;63.39
30614;BME280;17381;51.690;5.270;2023-05-23T07:49:33;102218.34;;;14.90;63.21
30614;BME280;17381;51.690;5.270;2023-05-23T07:52:41;102224.69;;;14.83;62.93
30614;BME280;17381;51.690;5.270;2023-05-23T07:55:33;102231.00;;;14.76;63.18
30614;BME280;17381;51.690;5.270;2023-05-23T07:58:07;102219.69;;;14.68;63.49
30614;BME280;17381;51.690;5.270;2023-05-23T08:01:13;102233.72;;;14.71;63.65
30614;BME280;17381;51.690;5.270;2023-05-23T08:04:29;102239.16;;;14.65;63.83
30614;BME280;17381;51.690;5.270;2023-05-23T08:07:36;102234.66;;;14.69;64.58
30614;BME280;17381;51.690;5.270;2023-05-23T08:10:33;102232.88;;;14.71;64.21
30614;BME280;17381;51.690;5.270;2023-05-23T08:13:50;102232.88;;;14.71;65.01
30614;BME280;17381;51.690;5.270;2023-05-23T08:16:52;102220.66;;;14.64;64.69
30614;BME280;17381;51.690;5.270;2023-05-23T08:19:51;102180.59;;;14.37;65.11
30614;BME280;17381;51.690;5.270;2023-05-23T08:22:36;102243.34;;;14.77;65.45
30614;BME280;17381;51.690;5.270;2023-05-23T08:25:12;102246.94;;;14.73;64.68
30614;BME280;17381;51.690;5.270;2023-05-23T08:28:05;102239.84;;;14.75;65.13
30614;BME280;17381;51.690;5.270;2023-05-23T08:31:31;102244.28;;;14.73;64.59
30614;BME280;17381;51.690;5.270;2023-05-23T08:34:35;102243.53;;;14.68;65.15
30614;BME280;17381;51.690;5.270;2023-05-23T08:37:31;102250.53;;;14.69;64.85
30614;BME280;17381;51.690;5.270;2023-05-23T08:40:42;102239.94;;;14.69;64.89
30614;BME280;17381;51.690;5.270;2023-05-23T08:43:40;102229.38;;;14.69;64.79
30614;BME280;17381;51.690;5.270;2023-05-23T08:46:40;102235.84;;;14.97;65.25
30614;BME280;17381;51.690;5.270;2023-05-23T08:49:23;102232.97;;;15.08;63.59
30614;BME280;17381;51.690;5.270;2023-05-23T08:52:10;102244.09;;;15.24;61.91
30614;BME280;17381;51.690;5.270;2023-05-23T08:55:09;102240.41;;;15.31;62.19
30614;BME280;17381;51.690;5.270;2023-05-23T08:57:59;102250.84;;;15.37;61.67
30614;BME280;17381;51.690;5.270;2023-05-23T09:01:10;102250.69;;;15.43;61.63
30614;BME280;17381;51.690;5.270;2023-05-23T09:04:21;102260.25;;;15.51;61.68
30614;BME280;17381;51.690;5.270;2023-05-23T09:07:12;102254.06;;;15.52;61.67
30614;BME280;17381;51.690;5.270;2023-05-23T09:10:10;102248.81;;;15.48;60.94
30614;BME280;17381;51.690;5.270;2023-05-23T09:12:52;102175.59;;;15.07;60.32
30614;BME280;17381;51.690;5.270;2023-05-23T09:15:21;102261.75;;;15.62;60.26
30614;BME280;17381;51.690;5.270;2023-05-23T09:18:15;102267.66;;;15.75;61.17
30614;BME280;17381;51.690;5.270;2023-05-23T09:21:11;102275.38;;;15.84;60.44
30614;BME280;17381;51.690;5.270;2023-05-23T09:24:59;102274.31;;;15.91;60.13
30614;BME280;17381;51.690;5.270;2023-05-23T09:27:54;102269.47;;;16.07;58.72
30614;BME280;17381;51.690;5.270;2023-05-23T09:31:05;102273.63;;;16.19;57.79
30614;BME280;17381;51.690;5.270;2023-05-23T09:34:03;102265.75;;;16.16;56.55
30614;BME280;17381;51.690;5.270;2023-05-23T09:36:57;102265.59;;;16.21;56.90
30614;BME280;17381;51.690;5.270;2023-05-23T09:39:51;102265.00;;;16.11;57.14
30614;BME280;17381;51.690;5.270;2023-05-23T09:42:52;102275.25;;;16.23;56.42
30614;BME280;17381;51.690;5.270;2023-05-23T09:45:57;102277.91;;;16.23;57.06
30614;BME280;17381;51.690;5.270;2023-05-23T09:48:31;102275.13;;;16.29;57.10
30614;BME280;17381;51.690;5.270;2023-05-23T09:51:34;102271.44;;;16.33;57.13
30614;BME280;17381;51.690;5.270;2023-05-23T09:54:11;102260.59;;;16.43;56.12
30614;BME280;17381;51.690;5.270;2023-05-23T09:56:59;102276.34;;;16.82;56.13
30614;BME280;17381;51.690;5.270;2023-05-23T10:00:10;102270.50;;;17.30;56.60
30614;BME280;17381;51.690;5.270;2023-05-23T10:03:44;102269.19;;;17.71;53.30
30614;BME280;17381;51.690;5.270;2023-05-23T10:06:56;102260.38;;;17.69;53.69
30614;BME280;17381;51.690;5.270;2023-05-23T10:09:59;102275.78;;;17.58;53.06
30614;BME280;17381;51.690;5.270;2023-05-23T10:12:59;102269.22;;;17.41;53.42
30614;BME280;17381;51.690;5.270;2023-05-23T10:15:53;102270.19;;;17.39;51.76
30614;BME280;17381;51.690;5.270;2023-05-23T10:18:45;102279.19;;;17.63;52.92
30614;BME280;17381;51.690;5.270;2023-05-23T10:21:46;102227.22;;;17.53;52.26
30614;BME280;17381;51.690;5.270;2023-05-23T10:24:23;102273.84;;;17.91;50.65
30614;BME280;17381;51.690;5.270;2023-05-23T10:27:09;102279.72;;;18.02;51.79
30614;BME280;17381;51.690;5.270;2023-05-23T10:29:58;102284.06;;;18.05;51.52
30614;BME280;17381;51.690;5.270;2023-05-23T10:32:43;102282.03;;;18.12;50.61
30614;BME280;17381;51.690;5.270;2023-05-23T10:39:27;102273.84;;;18.43;51.61
30614;BME280;17381;51.690;5.270;2023-05-23T10:42:50;102277.25;;;18.71;49.94
30614;BME280;17381;51.690;5.270;2023-05-23T10:45:51;102266.81;;;18.90;47.99
30614;BME280;17381;51.690;5.270;2023-05-23T10:48:59;102269.59;;;19.11;48.00
30614;BME280;17381;51.690;5.270;2023-05-23T10:51:59;102281.53;;;19.46;49.88
30614;BME280;17381;51.690;5.270;2023-05-23T10:54:57;102270.75;;;19.71;48.85
30614;BME280;17381;51.690;5.270;2023-05-23T10:57:36;102277.72;;;19.75;48.97
30614;BME280;17381;51.690;5.270;2023-05-23T11:00:21;102273.16;;;19.99;48.51
30614;BME280;17381;51.690;5.270;2023-05-23T11:03:16;102286.81;;;19.92;47.43
30614;BME280;17381;51.690;5.270;2023-05-23T11:09:29;102292.97;;;19.72;47.03
30614;BME280;17381;51.690;5.270;2023-05-23T11:12:41;102284.28;;;19.89;46.92
30614;BME280;17381;51.690;5.270;2023-05-23T11:15:25;102283.03;;;20.18;45.74
30614;BME280;17381;51.690;5.270;2023-05-23T11:19:00;102266.81;;;20.43;45.85
30614;BME280;17381;51.690;5.270;2023-05-23T11:21:39;102270.03;;;20.72;43.15
30614;BME280;17381;51.690;5.270;2023-05-23T11:24:22;102266.00;;;20.82;43.50
30614;BME280;17381;51.690;5.270;2023-05-23T11:27:04;102272.09;;;20.65;43.03
30614;BME280;17381;51.690;5.270;2023-05-23T11:30:23;102272.91;;;20.26;42.44
30614;BME280;17381;51.690;5.270;2023-05-23T11:33:27;102272.19;;;20.22;44.42
30614;BME280;17381;51.690;5.270;2023-05-23T11:36:06;102240.78;;;20.27;45.20
30614;BME280;17381;51.690;5.270;2023-05-23T11:38:53;102287.94;;;20.69;43.70
30614;BME280;17381;51.690;5.270;2023-05-23T11:42:05;102275.81;;;20.81;43.92
30614;BME280;17381;51.690;5.270;2023-05-23T11:44:49;102267.88;;;21.18;44.61
30614;BME280;17381;51.690;5.270;2023-05-23T11:47:39;102277.13;;;21.29;44.00
30614;BME280;17381;51.690;5.270;2023-05-23T11:50:31;102280.69;;;21.30;43.67
30614;BME280;17381;51.690;5.270;2023-05-23T11:53:07;102283.66;;;21.05;43.25
30614;BME280;17381;51.690;5.270;2023-05-23T11:55:33;102269.22;;;20.69;43.24
30614;BME280;17381;51.690;5.270;2023-05-23T11:58:12;102286.06;;;20.51;43.66
30614;BME280;17381;51.690;5.270;2023-05-23T12:01:08;102235.91;;;19.96;42.99
30614;BME280;17381;51.690;5.270;2023-05-23T12:04:21;102276.56;;;20.23;44.03
30614;BME280;17381;51.690;5.270;2023-05-23T12:07:13;102282.84;;;20.22;42.38
30614;BME280;17381;51.690;5.270;2023-05-23T12:10:36;102294.47;;;20.01;42.72
30614;BME280;17381;51.690;5.270;2023-05-23T12:13:36;102253.13;;;19.45;43.34
30614;BME280;17381;51.690;5.270;2023-05-23T12:16:27;102306.34;;;19.48;43.60
30614;BME280;17381;51.690;5.270;2023-05-23T12:19:03;102302.75;;;19.49;44.56
30614;BME280;17381;51.690;5.270;2023-05-23T12:21:52;102288.47;;;19.50;44.63
30614;BME280;17381;51.690;5.270;2023-05-23T12:24:27;102297.50;;;19.92;45.94
30614;BME280;17381;51.690;5.270;2023-05-23T12:27:15;102307.28;;;20.34;45.60
30614;BME280;17381;51.690;5.270;2023-05-23T12:30:24;102302.13;;;20.90;46.58
30614;BME280;17381;51.690;5.270;2023-05-23T12:32:57;102277.34;;;20.87;45.82
30614;BME280;17381;51.690;5.270;2023-05-23T12:35:29;102309.25;;;21.48;42.87
30614;BME280;17381;51.690;5.270;2023-05-23T12:38:14;102309.06;;;21.70;43.65
30614;BME280;17381;51.690;5.270;2023-05-23T12:41:16;102314.91;;;21.78;41.63
30614;BME280;17381;51.690;5.270;2023-05-23T12:44:15;102305.41;;;21.54;41.29
30614;BME280;17381;51.690;5.270;2023-05-23T12:47:14;102305.00;;;21.44;42.00
30614;BME280;17381;51.690;5.270;2023-05-23T12:50:13;102315.69;;;21.81;43.06
30614;BME280;17381;51.690;5.270;2023-05-23T12:53:21;102305.53;;;22.24;41.77
30614;BME280;17381;51.690;5.270;2023-05-23T12:56:37;102299.78;;;22.31;40.02
30614;BME280;17381;51.690;5.270;2023-05-23T12:59:31;102299.72;;;21.96;39.73
30614;BME280;17381;51.690;5.270;2023-05-23T13:02:08;102297.66;;;21.67;40.75
30614;BME280;17381;51.690;5.270;2023-05-23T13:04:48;102279.34;;;21.40;41.36
30614;BME280;17381;51.690;5.270;2023-05-23T13:07:33;102266.03;;;21.20;41.11
30614;BME280;17381;51.690;5.270;2023-05-23T13:10:43;102307.66;;;21.44;41.48
30614;BME280;17381;51.690;5.270;2023-05-23T13:13:34;102305.84;;;21.45;42.50
30614;BME280;17381;51.690;5.270;2023-05-23T13:16:07;102306.19;;;21.37;41.75
30614;BME280;17381;51.690;5.270;2023-05-23T13:18:43;102306.19;;;21.37;42.57
30614;BME280;17381;51.690;5.270;2023-05-23T13:21:18;102297.47;;;21.15;39.04
30614;BME280;17381;51.690;5.270;2023-05-23T13:23:59;102304.13;;;20.85;40.19
30614;BME280;17381;51.690;5.270;2023-05-23T13:26:37;102252.47;;;20.25;41.01
30614;BME280;17381;51.690;5.270;2023-05-23T13:29:53;102308.38;;;20.50;42.59
30614;BME280;17381;51.690;5.270;2023-05-23T13:32:25;102316.13;;;20.77;41.97
30614;BME280;17381;51.690;5.270;2023-05-23T13:34:57;102303.72;;;20.95;42.74
30614;BME280;17381;51.690;5.270;2023-05-23T13:37:31;102300.25;;;21.11;42.27
30614;BME280;17381;51.690;5.270;2023-05-23T13:40:20;102283.91;;;20.99;40.33
30614;BME280;17381;51.690;5.270;2023-05-23T13:43:07;102296.91;;;20.87;41.65
30614;BME280;17381;51.690;5.270;2023-05-23T13:48:53;102284.66;;;20.83;42.55
30614;BME280;17381;51.690;5.270;2023-05-23T13:52:00;102308.84;;;21.37;40.92
30614;BME280;17381;51.690;5.270;2023-05-23T13:54:48;102308.94;;;21.54;40.21
30614;BME280;17381;51.690;5.270;2023-05-23T13:57:56;102271.66;;;21.51;39.35
30614;BME280;17381;51.690;5.270;2023-05-23T14:00:58;102303.06;;;21.84;39.65
30614;BME280;17381;51.690;5.270;2023-05-23T14:04:14;102295.84;;;22.21;39.73
30614;BME280;17381;51.690;5.270;2023-05-23T14:07:03;102299.06;;;22.28;38.49
30614;BME280;17381;51.690;5.270;2023-05-23T14:09:59;102319.38;;;21.97;38.54
30614;BME280;17381;51.690;5.270;2023-05-23T14:12:57;102307.78;;;21.60;40.69
30614;BME280;17381;51.690;5.270;2023-05-23T14:15:51;102299.75;;;21.03;39.56
30614;BME280;17381;51.690;5.270;2023-05-23T14:18:49;102299.91;;;20.61;39.52
30614;BME280;17381;51.690;5.270;2023-05-23T14:21:38;102317.59;;;20.63;42.72
30614;BME280;17381;51.690;5.270;2023-05-23T14:24:24;102262.97;;;20.71;42.16
30614;BME280;17381;51.690;5.270;2023-05-23T14:27:08;102304.63;;;21.33;41.14
30614;BME280;17381;51.690;5.270;2023-05-23T14:30:19;102301.63;;;21.77;39.61
30614;BME280;17381;51.690;5.270;2023-05-23T14:33:18;102260.13;;;21.86;39.65
30614;BME280;17381;51.690;5.270;2023-05-23T14:36:04;102291.19;;;22.07;39.06
30614;BME280;17381;51.690;5.270;2023-05-23T14:39:06;102292.16;;;22.41;39.35
30614;BME280;17381;51.690;5.270;2023-05-23T14:41:53;102298.41;;;22.57;38.58
30614;BME280;17381;51.690;5.270;2023-05-23T14:44:55;102283.00;;;22.78;39.92
30614;BME280;17381;51.690;5.270;2023-05-23T14:48:10;102297.84;;;22.68;37.11
30614;BME280;17381;51.690;5.270;2023-05-23T14:51:04;102288.91;;;22.34;37.70
30614;BME280;17381;51.690;5.270;2023-05-23T14:54:06;102216.78;;;21.60;38.28
30614;BME280;17381;51.690;5.270;2023-05-23T14:56:44;102302.72;;;21.90;38.19
30614;BME280;17381;51.690;5.270;2023-05-23T14:59:25;102299.59;;;21.99;38.23
30614;BME280;17381;51.690;5.270;2023-05-23T15:02:35;102305.88;;;21.98;37.09
30614;BME280;17381;51.690;5.270;2023-05-23T15:05:31;102303.38;;;21.59;38.29
30614;BME280;17381;51.690;5.270;2023-05-23T15:08:23;102308.94;;;21.17;37.67
30614;BME280;17381;51.690;5.270;2023-05-23T15:11:24;102307.28;;;20.75;38.60
30614;BME280;17381;51.690;5.270;2023-05-23T15:14:28;102288.88;;;20.48;39.37
30614;BME280;17381;51.690;5.270;2023-05-23T15:17:15;102253.88;;;20.34;40.12
30614;BME280;17381;51.690;5.270;2023-05-23T15:20:13;102297.66;;;20.91;41.36
30614;BME280;17381;51.690;5.270;2023-05-23T15:23:16;102311.28;;;21.43;40.56
30614;BME280;17381;51.690;5.270;2023-05-23T15:26:18;102318.91;;;21.70;37.84
30614;BME280;17381;51.690;5.270;2023-05-23T15:29:16;102312.13;;;21.63;36.81
30614;BME280;17381;51.690;5.270;2023-05-23T15:32:07;102316.13;;;21.35;37.37
30614;BME280;17381;51.690;5.270;2023-05-23T15:35:06;102272.75;;;21.09;39.22
30614;BME280;17381;51.690;5.270;2023-05-23T15:37:59;102309.81;;;21.36;37.86
30614;BME280;17381;51.690;5.270;2023-05-23T15:40:46;102307.81;;;21.41;38.56
30614;BME280;17381;51.690;5.270;2023-05-23T15:43:14;102315.91;;;21.59;38.01
30614;BME280;17381;51.690;5.270;2023-05-23T15:45:48;102301.88;;;21.53;37.76
30614;BME280;17381;51.690;5.270;2023-05-23T15:48:23;102311.97;;;21.66;38.68
30614;BME280;17381;51.690;5.270;2023-05-23T15:51:16;102279.44;;;21.37;36.97
30614;BME280;17381;51.690;5.270;2023-05-23T15:54:14;102325.97;;;21.14;37.76
30614;BME280;17381;51.690;5.270;2023-05-23T15:57:44;102325.50;;;20.85;38.75
30614;BME280;17381;51.690;5.270;2023-05-23T15:59:53;102313.97;;;20.85;39.41
30614;BME280;17381;51.690;5.270;2023-05-23T16:02:56;102316.22;;;20.94;39.16
30614;BME280;17381;51.690;5.270;2023-05-23T16:05:28;102322.22;;;20.99;39.08
30614;BME280;17381;51.690;5.270;2023-05-23T16:08:08;102320.72;;;21.12;40.54
30614;BME280;17381;51.690;5.270;2023-05-23T16:10:47;102264.28;;;21.00;39.93
30614;BME280;17381;51.690;5.270;2023-05-23T16:13:44;102320.81;;;21.49;39.47
30614;BME280;17381;51.690;5.270;2023-05-23T16:16:46;102341.88;;;21.56;39.43
30614;BME280;17381;51.690;5.270;2023-05-23T16:19:37;102323.66;;;21.46;37.87
30614;BME280;17381;51.690;5.270;2023-05-23T16:22:28;102319.06;;;21.29;38.92
30614;BME280;17381;51.690;5.270;2023-05-23T16:25:31;102328.59;;;21.16;38.10
30614;BME280;17381;51.690;5.270;2023-05-23T16:28:34;102330.75;;;20.88;37.35
30614;BME280;17381;51.690;5.270;2023-05-23T16:31:41;102330.09;;;20.63;38.47
30614;BME280;17381;51.690;5.270;2023-05-23T16:34:51;102320.53;;;20.37;38.45
30614;BME280;17381;51.690;5.270;2023-05-23T16:37:43;102324.09;;;20.15;39.64
30614;BME280;17381;51.690;5.270;2023-05-23T16:40:24;102294.88;;;19.90;39.18
30614;BME280;17381;51.690;5.270;2023-05-23T16:43:07;102323.38;;;20.12;39.15
30614;BME280;17381;51.690;5.270;2023-05-23T16:46:14;102322.59;;;20.08;39.38
30614;BME280;17381;51.690;5.270;2023-05-23T16:49:28;102280.63;;;19.69;37.83
30614;BME280;17381;51.690;5.270;2023-05-23T16:52:09;102323.47;;;19.88;36.99
30614;BME280;17381;51.690;5.270;2023-05-23T16:54:53;102256.44;;;19.52;38.63
30614;BME280;17381;51.690;5.270;2023-05-23T16:57:56;102319.59;;;19.73;39.38
30614;BME280;17381;51.690;5.270;2023-05-23T17:00:41;102315.81;;;19.57;37.57
30614;BME280;17381;51.690;5.270;2023-05-23T17:03:38;102318.44;;;19.35;39.08
30614;BME280;17381;51.690;5.270;2023-05-23T17:09:55;102321.63;;;18.98;39.85
30614;BME280;17381;51.690;5.270;2023-05-23T17:12:57;102336.38;;;18.83;40.26
30614;BME280;17381;51.690;5.270;2023-05-23T17:22:43;102328.16;;;18.39;40.57
30614;BME280;17381;51.690;5.270;2023-05-23T17:25:33;102335.84;;;18.21;41.31